Time;durP1;ratioP1;P1;durP2;ratioP2;P2;SDS_P1;SDS_P2;PMS_P1;PMS_P2;Temp;Humidity;BMP_temperature;BMP_pressure;BME280_temperature;BME280_humidity;BME280_pressure;Samples;Min_cycle;Max_cycle;Signal;HPM_P1;HPM_P2
2020/12/28 00:02:09;;;;;;;17.23;10.45;;;19.60;88.60;;;;;;5023026;28;20483;-53
2020/12/28 00:04:35;;;;;;;16.63;9.85;;;19.50;88.60;;;;;;5029398;28;20037;-52
2020/12/28 00:07:01;;;;;;;15.70;9.82;;;19.50;88.50;;;;;;5010095;28;20033;-53
2020/12/28 00:09:27;;;;;;;18.75;10.50;;;19.50;88.60;;;;;;5021528;28;20102;-52
2020/12/28 00:11:56;;;;;;;15.52;10.25;;;19.50;88.60;;;;;;5002393;28;20386;-53
2020/12/28 00:14:22;;;;;;;20.05;10.40;;;19.50;88.60;;;;;;5032572;28;20112;-52
2020/12/28 00:16:48;;;;;;;15.88;9.73;;;19.50;88.40;;;;;;5009344;28;20034;-52
2020/12/28 00:19:14;;;;;;;15.50;9.65;;;19.50;88.50;;;;;;5023530;28;20025;-52
2020/12/28 00:21:40;;;;;;;17.25;9.95;;;19.50;88.50;;;;;;5025884;28;20474;-52
2020/12/28 00:24:06;;;;;;;14.82;9.38;;;19.50;88.40;;;;;;5011032;28;20492;-53
2020/12/28 00:26:36;;;;;;;15.50;9.15;;;19.50;88.40;;;;;;5027538;28;20136;-53
2020/12/28 00:29:02;;;;;;;15.15;9.85;;;19.50;88.50;;;;;;5027766;28;20029;-54
2020/12/28 00:31:28;;;;;;;14.43;9.07;;;19.50;88.70;;;;;;5027053;28;20037;-53
2020/12/28 00:33:53;;;;;;;14.15;9.18;;;19.50;88.50;;;;;;5024487;28;20029;-53
2020/12/28 00:36:19;;;;;;;17.75;9.25;;;19.50;88.60;;;;;;5022902;28;20037;-53
2020/12/28 00:38:45;;;;;;;18.35;9.80;;;19.50;88.80;;;;;;5027456;28;20029;-54
2020/12/28 00:41:11;;;;;;;14.82;9.43;;;19.50;88.80;;;;;;5028065;28;20026;-54
2020/12/28 00:43:41;;;;;;;15.07;8.50;;;19.50;88.60;;;;;;5033526;28;20030;-54
2020/12/28 00:46:10;;;;;;;14.32;9.30;;;19.50;88.60;;;;;;5034214;28;20060;-54
2020/12/28 00:48:36;;;;;;;15.40;9.00;;;19.50;88.50;;;;;;5033739;28;20030;-54
2020/12/28 00:51:02;;;;;;;13.05;8.55;;;19.50;88.30;;;;;;5024854;28;20014;-55
2020/12/28 00:53:29;;;;;;;14.50;9.73;;;19.50;88.50;;;;;;5006446;28;20080;-53
2020/12/28 00:55:55;;;;;;;17.95;10.13;;;19.50;88.60;;;;;;5031953;28;20053;-53
2020/12/28 00:58:21;;;;;;;13.60;9.00;;;19.50;88.30;;;;;;5029256;28;20037;-52
2020/12/28 01:00:46;;;;;;;14.65;9.40;;;19.50;88.10;;;;;;5021200;28;20030;-54
2020/12/28 01:03:12;;;;;;;14.18;8.57;;;19.50;87.80;;;;;;5026040;28;20021;-54
2020/12/28 01:05:38;;;;;;;15.88;9.15;;;19.50;87.70;;;;;;5013040;28;20033;-54
2020/12/28 01:08:03;;;;;;;12.88;8.35;;;19.50;87.80;;;;;;5025426;28;20052;-53
2020/12/28 01:10:29;;;;;;;15.52;9.45;;;19.50;87.40;;;;;;5022818;28;20025;-53
2020/12/28 01:12:54;;;;;;;14.18;8.98;;;19.50;87.10;;;;;;5025679;28;20413;-52
2020/12/28 01:15:20;;;;;;;12.15;8.35;;;19.50;87.50;;;;;;5031173;28;20049;-55
2020/12/28 01:17:46;;;;;;;14.20;8.95;;;19.50;87.30;;;;;;5017865;28;20088;-53
2020/12/28 01:20:11;;;;;;;13.73;8.45;;;19.50;87.00;;;;;;5030746;28;20109;-53
2020/12/28 01:22:37;;;;;;;14.23;9.55;;;19.50;87.50;;;;;;5025397;28;20492;-54
2020/12/28 01:25:04;;;;;;;13.55;8.50;;;19.50;87.00;;;;;;5020719;28;20053;-54
2020/12/28 01:27:30;;;;;;;14.57;8.68;;;19.50;87.30;;;;;;5032400;28;20560;-53
2020/12/28 01:29:55;;;;;;;11.70;8.13;;;19.50;87.10;;;;;;5020573;28;20022;-54
2020/12/28 01:32:21;;;;;;;13.68;8.85;;;19.50;86.90;;;;;;5026693;28;20022;-55
2020/12/28 01:34:46;;;;;;;11.85;8.35;;;19.50;86.90;;;;;;5026399;28;20046;-54
2020/12/28 01:37:12;;;;;;;12.60;8.20;;;19.50;87.40;;;;;;5033841;28;20032;-53
2020/12/28 01:39:39;;;;;;;12.98;8.18;;;19.50;86.80;;;;;;5026153;28;20033;-54
2020/12/28 01:42:06;;;;;;;13.05;8.35;;;19.50;87.20;;;;;;5024018;28;20113;-53
2020/12/28 01:44:32;;;;;;;11.93;7.90;;;19.50;86.90;;;;;;5012489;28;20037;-54
2020/12/28 01:46:57;;;;;;;14.88;8.43;;;19.50;87.10;;;;;;5030213;28;20458;-55
2020/12/28 01:49:23;;;;;;;14.13;8.48;;;19.50;87.20;;;;;;5020615;28;20034;-54
2020/12/28 01:51:49;;;;;;;12.15;8.25;;;19.50;87.40;;;;;;5027374;28;20073;-54
2020/12/28 01:54:15;;;;;;;12.20;8.25;;;19.50;87.10;;;;;;5010652;28;20029;-54
2020/12/28 01:56:41;;;;;;;12.93;8.35;;;19.50;86.90;;;;;;5024640;28;20033;-54
2020/12/28 01:59:07;;;;;;;12.23;7.45;;;19.40;86.80;;;;;;5033160;28;20029;-53
2020/12/28 02:01:40;;;;;;;12.05;8.10;;;19.50;87.20;;;;;;5028146;28;20536;-53
2020/12/28 02:04:06;;;;;;;11.23;7.57;;;19.40;86.60;;;;;;5016302;28;20060;-52
2020/12/28 02:06:32;;;;;;;10.48;6.90;;;19.50;86.90;;;;;;5029638;28;20360;-52
2020/12/28 02:08:58;;;;;;;9.70;7.63;;;19.50;86.70;;;;;;5025763;28;20114;-54
2020/12/28 02:11:23;;;;;;;10.68;7.53;;;19.50;86.70;;;;;;5032817;28;20021;-53
2020/12/28 02:13:49;;;;;;;10.50;7.57;;;19.50;86.90;;;;;;5027250;28;20033;-54
2020/12/28 02:16:14;;;;;;;10.85;6.82;;;19.40;86.30;;;;;;5004668;28;20033;-53
2020/12/28 02:18:40;;;;;;;12.30;7.32;;;19.50;86.30;;;;;;4993373;28;20458;-54
2020/12/28 02:21:06;;;;;;;13.25;7.80;;;19.40;87.10;;;;;;5016187;28;20079;-54
2020/12/28 02:23:31;;;;;;;11.13;7.20;;;19.50;86.60;;;;;;5022817;28;20383;-54
2020/12/28 02:25:57;;;;;;;11.43;7.28;;;19.50;86.80;;;;;;5009150;28;20501;-53
2020/12/28 02:28:22;;;;;;;11.50;7.45;;;19.50;86.30;;;;;;5029901;28;20167;-52
2020/12/28 02:30:48;;;;;;;15.05;9.15;;;19.50;86.50;;;;;;5025423;28;20033;-54
2020/12/28 02:33:13;;;;;;;11.68;7.70;;;19.40;86.00;;;;;;5033625;28;20033;-53
2020/12/28 02:35:39;;;;;;;12.75;7.28;;;19.40;86.30;;;;;;5004022;28;20569;-54
2020/12/28 02:38:05;;;;;;;12.82;8.00;;;19.40;86.50;;;;;;5028787;28;20412;-54
2020/12/28 02:40:30;;;;;;;12.90;7.78;;;19.50;86.60;;;;;;5023201;28;20422;-55
2020/12/28 02:42:56;;;;;;;11.50;7.32;;;19.50;86.20;;;;;;5030036;28;20066;-54
2020/12/28 02:45:21;;;;;;;12.60;7.53;;;19.40;86.30;;;;;;5028286;28;20459;-53
2020/12/28 02:47:47;;;;;;;11.05;7.20;;;19.40;86.30;;;;;;5020618;28;20080;-55
2020/12/28 02:50:12;;;;;;;13.02;8.02;;;19.40;86.50;;;;;;5024888;28;20114;-54
2020/12/28 02:52:38;;;;;;;11.68;7.25;;;19.40;86.30;;;;;;5019921;28;20030;-54
2020/12/28 02:55:04;;;;;;;10.73;7.15;;;19.40;86.30;;;;;;5029808;28;20073;-54
2020/12/28 02:57:29;;;;;;;10.07;6.55;;;19.40;86.00;;;;;;5023702;28;20025;-54
2020/12/28 02:59:55;;;;;;;10.43;6.88;;;19.40;86.00;;;;;;5010808;28;20025;-54
2020/12/28 03:02:20;;;;;;;13.73;7.85;;;19.40;86.60;;;;;;5022729;28;20055;-53
2020/12/28 03:04:46;;;;;;;10.43;7.53;;;19.40;86.10;;;;;;5026001;28;20030;-54
2020/12/28 03:07:11;;;;;;;10.75;7.05;;;19.40;86.20;;;;;;5021169;28;20069;-54
2020/12/28 03:09:37;;;;;;;10.90;7.18;;;19.40;86.50;;;;;;5026750;28;20034;-54
2020/12/28 03:12:02;;;;;;;10.20;6.75;;;19.40;86.20;;;;;;5024833;28;20442;-54
2020/12/28 03:14:28;;;;;;;11.20;6.97;;;19.40;86.40;;;;;;5027078;28;20026;-53
2020/12/28 03:16:54;;;;;;;10.52;7.25;;;19.40;85.90;;;;;;5019624;28;20025;-53
2020/12/28 03:19:19;;;;;;;10.73;8.05;;;19.40;86.00;;;;;;5025663;28;20367;-53
2020/12/28 03:21:45;;;;;;;11.80;7.50;;;19.40;86.50;;;;;;5032235;28;20104;-53
2020/12/28 03:24:10;;;;;;;10.43;6.85;;;19.40;86.50;;;;;;5024608;28;20030;-55
2020/12/28 03:26:36;;;;;;;10.30;6.57;;;19.40;86.20;;;;;;5027378;28;20132;-54
2020/12/28 03:29:01;;;;;;;10.57;7.15;;;19.40;86.30;;;;;;5022981;28;20471;-55
2020/12/28 03:31:28;;;;;;;11.30;7.32;;;19.40;86.10;;;;;;5028001;28;20025;-53
2020/12/28 03:33:54;;;;;;;11.27;7.10;;;19.40;86.20;;;;;;5022413;28;20029;-53
2020/12/28 03:36:20;;;;;;;10.45;7.28;;;19.40;86.20;;;;;;5023968;28;20478;-53
2020/12/28 03:38:46;;;;;;;8.57;6.32;;;19.40;86.50;;;;;;5010770;28;20049;-54
2020/12/28 03:41:13;;;;;;;9.90;7.03;;;19.40;86.00;;;;;;5026036;28;20041;-53
2020/12/28 03:43:38;;;;;;;10.63;6.75;;;19.40;86.00;;;;;;5021965;28;20030;-54
2020/12/28 03:46:04;;;;;;;10.30;7.20;;;19.40;86.10;;;;;;5023558;28;20040;-54
2020/12/28 03:48:29;;;;;;;9.18;6.30;;;19.40;86.50;;;;;;5028821;28;20055;-54
2020/12/28 03:50:55;;;;;;;8.57;6.22;;;19.40;86.30;;;;;;5025465;28;20483;-53
2020/12/28 03:53:21;;;;;;;9.48;6.68;;;19.40;86.10;;;;;;5006246;28;20022;-54
2020/12/28 03:55:46;;;;;;;8.35;6.38;;;19.40;86.20;;;;;;5020807;28;20038;-54
2020/12/28 03:58:12;;;;;;;10.63;7.05;;;19.40;86.30;;;;;;5031830;28;20064;-54
2020/12/28 04:00:37;;;;;;;9.80;7.47;;;19.40;86.10;;;;;;5024455;28;20030;-52
2020/12/28 04:03:03;;;;;;;9.95;6.68;;;19.40;85.70;;;;;;5020935;28;20028;-53
2020/12/28 04:05:28;;;;;;;9.43;6.72;;;19.40;85.70;;;;;;5023690;28;20112;-54
2020/12/28 04:07:54;;;;;;;8.50;6.05;;;19.40;85.90;;;;;;5032390;28;20037;-53
2020/12/28 04:10:20;;;;;;;10.32;7.45;;;19.40;85.70;;;;;;5020780;28;20030;-53
2020/12/28 04:12:45;;;;;;;9.77;7.05;;;19.40;85.60;;;;;;5029036;28;20030;-53
2020/12/28 04:15:11;;;;;;;9.93;6.85;;;19.40;85.50;;;;;;5026322;28;20030;-53
2020/12/28 04:17:36;;;;;;;7.93;6.07;;;19.40;85.60;;;;;;5015230;28;20043;-53
2020/12/28 04:20:03;;;;;;;9.73;6.70;;;19.40;85.50;;;;;;5004506;28;20068;-53
2020/12/28 04:22:28;;;;;;;9.07;6.57;;;19.30;85.30;;;;;;5007067;28;20030;-53
2020/12/28 04:24:54;;;;;;;8.60;6.28;;;19.40;85.70;;;;;;5024769;28;20049;-53
2020/12/28 04:27:19;;;;;;;10.60;7.05;;;19.40;85.50;;;;;;5021188;28;20038;-53
2020/12/28 04:29:46;;;;;;;9.10;6.93;;;19.40;85.40;;;;;;5032556;28;20033;-53
2020/12/28 04:32:12;;;;;;;10.13;6.63;;;19.40;85.70;;;;;;4996174;28;20113;-54
2020/12/28 04:34:37;;;;;;;8.77;6.32;;;19.30;85.40;;;;;;5026302;28;20121;-52
2020/12/28 04:37:03;;;;;;;10.88;6.72;;;19.40;85.40;;;;;;5022456;28;20025;-54
2020/12/28 04:39:29;;;;;;;8.48;5.75;;;19.30;85.40;;;;;;5028125;28;20029;-54
2020/12/28 04:41:54;;;;;;;8.52;6.22;;;19.40;85.30;;;;;;5027809;28;20038;-54
2020/12/28 04:44:20;;;;;;;9.82;7.28;;;19.40;85.40;;;;;;5032105;28;20033;-53
2020/12/28 04:46:46;;;;;;;7.75;5.78;;;19.40;85.10;;;;;;5021114;28;20048;-54
2020/12/28 04:49:12;;;;;;;8.38;6.22;;;19.30;85.20;;;;;;5030037;28;20064;-53
2020/12/28 04:51:38;;;;;;;8.35;5.85;;;19.40;85.40;;;;;;5012696;28;20026;-54
2020/12/28 04:54:04;;;;;;;8.63;6.25;;;19.40;85.90;;;;;;5020352;28;20471;-53
2020/12/28 04:56:30;;;;;;;8.07;5.90;;;19.40;85.20;;;;;;5022321;28;20036;-53
2020/12/28 04:58:55;;;;;;;9.13;6.53;;;19.40;85.10;;;;;;5031204;28;20026;-54
2020/12/28 05:01:21;;;;;;;8.70;6.07;;;19.40;85.10;;;;;;5019614;28;20762;-53
2020/12/28 05:03:49;;;;;;;9.70;6.75;;;19.40;85.40;;;;;;5030276;28;20037;-54
2020/12/28 05:06:15;;;;;;;8.32;6.35;;;19.30;85.00;;;;;;5029106;28;20033;-53
2020/12/28 05:08:44;;;;;;;9.13;5.88;;;19.40;85.00;;;;;;5020108;28;20040;-54
2020/12/28 05:11:13;;;;;;;9.50;6.68;;;19.30;85.00;;;;;;5028295;28;20014;-53
2020/12/28 05:13:39;;;;;;;8.85;6.40;;;19.40;85.20;;;;;;5008944;28;20033;-53
2020/12/28 05:16:04;;;;;;;7.82;5.25;;;19.40;85.10;;;;;;5019128;28;20057;-56
2020/12/28 05:18:33;;;;;;;9.15;5.93;;;19.40;85.10;;;;;;5030520;28;20434;-53
2020/12/28 05:20:58;;;;;;;8.40;5.68;;;19.40;85.10;;;;;;5035207;28;20061;-54
2020/12/28 05:23:24;;;;;;;8.00;5.47;;;19.40;85.10;;;;;;5026612;28;20053;-54
2020/12/28 05:25:51;;;;;;;7.57;5.63;;;19.40;85.40;;;;;;5026516;28;20465;-54
2020/12/28 05:28:20;;;;;;;7.10;5.32;;;19.40;85.00;;;;;;5024045;28;20025;-54
2020/12/28 05:30:46;;;;;;;8.57;6.07;;;19.40;85.10;;;;;;5030388;28;20068;-53
2020/12/28 05:33:13;;;;;;;7.55;5.25;;;19.40;84.90;;;;;;5026362;28;20052;-53
2020/12/28 05:35:39;;;;;;;6.45;5.07;;;19.40;85.00;;;;;;5023135;28;20030;-55
2020/12/28 05:38:06;;;;;;;7.18;5.15;;;19.50;84.90;;;;;;5025624;28;20113;-54
2020/12/28 05:40:36;;;;;;;7.03;5.68;;;19.50;84.90;;;;;;5030120;28;20398;-54
2020/12/28 05:43:02;;;;;;;6.95;5.43;;;19.50;84.50;;;;;;5016454;28;20391;-54
2020/12/28 05:45:28;;;;;;;7.15;5.30;;;19.50;84.70;;;;;;5030150;28;20084;-53
2020/12/28 05:47:58;;;;;;;8.52;5.85;;;19.50;84.90;;;;;;5022244;28;20021;-54
2020/12/28 05:50:32;;;;;;;7.55;5.40;;;19.50;85.20;;;;;;5030956;28;20517;-54
2020/12/28 05:53:00;;;;;;;6.75;5.03;;;19.60;84.80;;;;;;5009977;28;20069;-53
2020/12/28 05:55:28;;;;;;;7.03;5.28;;;19.60;84.80;;;;;;5027517;28;20043;-54
2020/12/28 05:57:55;;;;;;;6.43;4.85;;;19.60;84.80;;;;;;5030450;28;20030;-54
2020/12/28 06:00:21;;;;;;;8.10;5.25;;;19.60;84.90;;;;;;5029992;28;20040;-54
2020/12/28 06:02:47;;;;;;;6.45;4.80;;;19.60;84.70;;;;;;5011152;28;20034;-53
2020/12/28 06:05:15;;;;;;;6.60;4.78;;;19.60;84.80;;;;;;5027897;28;20034;-53
2020/12/28 06:07:41;;;;;;;6.93;4.90;;;19.60;84.80;;;;;;5024557;28;20053;-54
2020/12/28 06:10:08;;;;;;;6.68;5.38;;;19.60;84.60;;;;;;5022525;28;20037;-53
2020/12/28 06:12:34;;;;;;;8.70;4.90;;;19.60;84.40;;;;;;5033119;28;20359;-53
2020/12/28 06:15:00;;;;;;;7.50;5.03;;;19.60;84.50;;;;;;5020777;28;20028;-54
2020/12/28 06:17:34;;;;;;;7.70;5.53;;;19.60;84.70;;;;;;5023519;28;20026;-53
2020/12/28 06:20:01;;;;;;;8.05;4.88;;;19.70;85.00;;;;;;5035185;28;20025;-54
2020/12/28 06:22:26;;;;;;;6.68;4.45;;;19.60;84.50;;;;;;5014817;28;20029;-54
2020/12/28 06:25:03;;;;;;;7.03;5.22;;;19.70;84.70;;;;;;5027688;28;20060;-54
2020/12/28 06:27:38;;;;;;;6.20;4.40;;;19.60;84.60;;;;;;5031671;28;20486;-53
2020/12/28 06:30:15;;;;;;;7.68;5.30;;;19.60;84.60;;;;;;5025960;28;20401;-54
2020/12/28 06:32:42;;;;;;;8.07;5.00;;;19.60;84.50;;;;;;5013140;28;20148;-54
2020/12/28 06:35:10;;;;;;;6.63;4.63;;;19.60;84.50;;;;;;5024523;28;20113;-54
2020/12/28 06:37:53;;;;;;;7.30;4.68;;;19.60;84.60;;;;;;5023127;28;20343;-52
2020/12/28 06:40:31;;;;;;;5.57;4.05;;;19.60;84.60;;;;;;5022826;28;20551;-54
2020/12/28 06:43:15;;;;;;;5.45;4.32;;;19.60;84.50;;;;;;5034364;28;20075;-54
2020/12/28 06:45:42;;;;;;;6.28;4.65;;;19.60;84.50;;;;;;5001484;28;20061;-53
2020/12/28 06:48:25;;;;;;;7.32;5.07;;;19.60;84.70;;;;;;5028447;28;20494;-54
2020/12/28 06:50:51;;;;;;;;;;;19.60;84.70;;;;;;5028734;28;20116;-55
2020/12/28 06:53:23;;;;;;;5.53;4.50;;;19.70;84.80;;;;;;5015046;28;20366;-54
2020/12/28 06:55:49;;;;;;;6.43;4.80;;;19.60;84.40;;;;;;5016724;28;20030;-54
2020/12/28 06:58:15;;;;;;;6.25;4.60;;;19.70;84.80;;;;;;5030794;28;20493;-53
2020/12/28 07:00:41;;;;;;;5.32;4.00;;;19.60;85.10;;;;;;5025128;28;20026;-53
2020/12/28 07:03:17;;;;;;;5.97;4.53;;;19.60;84.60;;;;;;5028092;28;20379;-54
2020/12/28 07:05:44;;;;;;;5.35;4.28;;;19.60;85.00;;;;;;5032256;28;20406;-53
2020/12/28 07:08:10;;;;;;;5.10;3.95;;;19.60;85.00;;;;;;5022545;28;20063;-53
2020/12/28 07:10:36;;;;;;;9.15;4.38;;;19.60;85.00;;;;;;5023506;28;20025;-53
2020/12/28 07:13:06;;;;;;;5.50;4.20;;;19.60;84.50;;;;;;5024537;28;20554;-54
2020/12/28 07:15:32;;;;;;;5.53;4.28;;;19.60;84.50;;;;;;5022634;28;20051;-53
2020/12/28 07:18:08;;;;;;;7.65;4.82;;;19.60;84.60;;;;;;5018789;28;20086;-53
2020/12/28 07:20:33;;;;;;;5.85;4.03;;;19.50;85.30;;;;;;5005706;28;20026;-54
2020/12/28 07:22:59;;;;;;;6.80;4.00;;;19.50;85.00;;;;;;5028469;28;20022;-53
2020/12/28 07:25:25;;;;;;;6.53;3.85;;;19.50;85.10;;;;;;5012451;28;20049;-53
2020/12/28 07:27:51;;;;;;;8.63;4.18;;;19.50;85.90;;;;;;5027585;28;20044;-54
2020/12/28 07:30:18;;;;;;;8.70;4.45;;;19.60;85.10;;;;;;5021501;28;20021;-53
2020/12/28 07:32:43;;;;;;;11.82;4.85;;;19.50;85.10;;;;;;5020460;28;20031;-53
2020/12/28 07:35:09;;;;;;;14.45;4.68;;;19.50;85.80;;;;;;5032333;28;20386;-53
2020/12/28 07:37:39;;;;;;;15.80;5.00;;;19.60;86.00;;;;;;5023374;28;20030;-53
2020/12/28 07:40:06;;;;;;;16.65;4.65;;;19.60;88.10;;;;;;5029815;28;20030;-54
2020/12/28 07:42:32;;;;;;;14.10;5.05;;;19.50;87.70;;;;;;5018816;28;20017;-53
2020/12/28 07:44:59;;;;;;;15.60;5.13;;;19.50;87.00;;;;;;5029467;28;20029;-54
2020/12/28 07:47:48;;;;;;;13.75;5.55;;;19.50;86.70;;;;;;5026333;28;20112;-53
2020/12/28 07:50:16;;;;;;;9.95;4.15;;;19.50;86.90;;;;;;5022075;28;20018;-55
2020/12/28 07:53:03;;;;;;;7.93;4.07;;;19.50;86.10;;;;;;5026353;28;20075;-54
2020/12/28 07:55:38;;;;;;;8.90;3.80;;;19.50;86.30;;;;;;5023465;28;20037;-53
2020/12/28 07:58:13;;;;;;;9.43;4.45;;;19.50;86.30;;;;;;5032957;28;20028;-53
2020/12/28 08:00:51;;;;;;;13.10;4.65;;;19.50;86.30;;;;;;5020563;28;20038;-53
2020/12/28 08:03:30;;;;;;;9.98;4.22;;;19.50;91.60;;;;;;5021767;28;20033;-53
2020/12/28 08:06:05;;;;;;;12.30;4.50;;;19.50;90.30;;;;;;5032972;28;20052;-54
2020/12/28 08:08:31;;;;;;;8.10;4.18;;;19.50;90.80;;;;;;5023600;28;20056;-53
2020/12/28 08:10:59;;;;;;;10.32;4.13;;;19.50;90.50;;;;;;5022782;28;20045;-53
2020/12/28 08:13:30;;;;;;;11.73;3.90;;;19.50;90.60;;;;;;5021336;28;20533;-53
2020/12/28 08:16:10;;;;;;;9.65;3.78;;;19.50;90.50;;;;;;5028528;28;20561;-54
2020/12/28 08:18:55;;;;;;;10.85;3.70;;;19.50;90.60;;;;;;5014139;28;20025;-53
2020/12/28 08:21:22;;;;;;;14.68;5.60;;;19.50;90.60;;;;;;5015008;28;20029;-53
2020/12/28 08:23:59;;;;;;;28.42;6.22;;;19.50;88.70;;;;;;5020035;28;20037;-55
2020/12/28 08:26:27;;;;;;;26.50;6.68;;;19.50;88.30;;;;;;5021280;28;20041;-54
2020/12/28 08:28:55;;;;;;;54.72;13.65;;;19.50;88.00;;;;;;5024529;28;20030;-53
2020/12/28 08:31:33;;;;;;;63.58;14.85;;;19.50;89.60;;;;;;5020798;28;20046;-53
2020/12/28 08:34:10;;;;;;;72.97;15.25;;;19.50;90.20;;;;;;5030789;28;20017;-53
2020/12/28 08:36:38;;;;;;;53.33;12.65;;;19.50;90.00;;;;;;5000305;28;20118;-53
2020/12/28 08:39:18;;;;;;;55.40;13.50;;;19.50;90.10;;;;;;5012957;28;20039;-54
2020/12/28 08:41:54;;;;;;;38.08;11.35;;;19.50;90.20;;;;;;5021472;28;20025;-54
2020/12/28 08:44:32;;;;;;;52.35;14.02;;;19.50;89.70;;;;;;5003165;28;20080;-54
2020/12/28 08:46:58;;;;;;;58.65;14.75;;;19.50;90.10;;;;;;5006353;28;20048;-54
2020/12/28 08:49:32;;;;;;;53.50;14.05;;;19.50;90.10;;;;;;5030678;28;20076;-54
2020/12/28 08:52:14;;;;;;;48.45;12.35;;;19.50;89.90;;;;;;5027630;28;20026;-53
2020/12/28 08:54:41;;;;;;;51.22;14.30;;;19.50;89.80;;;;;;5026124;28;20026;-54
2020/12/28 08:57:22;;;;;;;53.00;14.15;;;19.50;90.40;;;;;;5029969;28;20116;-54
2020/12/28 08:59:48;;;;;;;41.92;11.82;;;19.50;90.40;;;;;;5031367;28;20031;-55
2020/12/28 09:02:18;;;;;;;46.47;13.02;;;19.50;90.00;;;;;;5028930;28;20093;-54
2020/12/28 09:04:44;;;;;;;44.88;12.90;;;19.50;90.30;;;;;;5022520;28;20371;-54
2020/12/28 09:07:10;;;;;;;43.28;12.90;;;19.50;90.20;;;;;;5031037;28;20125;-54
2020/12/28 09:09:39;;;;;;;51.47;13.18;;;19.50;90.50;;;;;;5022473;28;20113;-54
2020/12/28 09:12:04;;;;;;;39.45;12.50;;;19.50;90.40;;;;;;5036484;28;20032;-55
2020/12/28 09:14:30;;;;;;;34.88;9.95;;;19.50;90.30;;;;;;5008706;28;20029;-54
2020/12/28 09:16:55;;;;;;;41.17;12.05;;;19.50;89.80;;;;;;5028995;28;20038;-54
2020/12/28 09:19:21;;;;;;;32.63;11.10;;;19.50;90.10;;;;;;5008614;28;20017;-54
2020/12/28 09:21:46;;;;;;;41.58;12.38;;;19.60;90.10;;;;;;5032545;28;20043;-53
2020/12/28 09:24:12;;;;;;;35.13;11.90;;;19.50;90.20;;;;;;5023360;28;20053;-55
2020/12/28 09:26:38;;;;;;;35.58;12.00;;;19.50;90.00;;;;;;5032810;28;20402;-54
2020/12/28 09:29:03;;;;;;;42.03;12.52;;;19.60;90.30;;;;;;5002606;28;20037;-55
2020/12/28 09:31:29;;;;;;;36.45;10.98;;;19.50;90.00;;;;;;5035615;28;20026;-54
2020/12/28 09:33:54;;;;;;;41.40;12.75;;;19.50;90.10;;;;;;5024658;28;20034;-53
2020/12/28 09:36:20;;;;;;;43.58;12.95;;;19.50;90.20;;;;;;5013453;28;20022;-53
2020/12/28 09:38:47;;;;;;;33.75;10.90;;;19.50;90.10;;;;;;5029660;28;20030;-54
2020/12/28 09:41:12;;;;;;;41.20;12.85;;;19.50;90.00;;;;;;5006542;28;20021;-56
2020/12/28 09:43:42;;;;;;;32.45;10.75;;;19.50;90.10;;;;;;5026544;28;20030;-55
2020/12/28 09:46:09;;;;;;;40.15;11.40;;;19.50;90.20;;;;;;5026526;28;20034;-54
2020/12/28 09:48:35;;;;;;;35.83;11.45;;;19.60;90.20;;;;;;5021706;28;20026;-54
2020/12/28 09:51:03;;;;;;;33.90;11.20;;;19.60;90.40;;;;;;5030069;28;20486;-54
2020/12/28 09:53:29;;;;;;;30.95;10.55;;;19.60;90.40;;;;;;5029079;28;20117;-54
2020/12/28 09:55:54;;;;;;;27.55;9.82;;;19.60;90.50;;;;;;5007407;28;20453;-54
2020/12/28 09:58:20;;;;;;;28.52;9.25;;;19.60;90.60;;;;;;5019923;28;20029;-54
2020/12/28 10:00:46;;;;;;;32.72;11.07;;;19.60;90.60;;;;;;5034910;28;20036;-54
2020/12/28 10:03:11;;;;;;;25.42;9.70;;;19.60;90.70;;;;;;5031936;28;20026;-54
2020/12/28 10:05:37;;;;;;;27.83;9.93;;;19.60;90.70;;;;;;5005126;28;20042;-55
2020/12/28 10:08:03;;;;;;;30.55;10.23;;;19.60;90.60;;;;;;5020231;28;20079;-54
2020/12/28 10:10:28;;;;;;;27.23;9.40;;;19.70;90.70;;;;;;5029572;28;20026;-54
2020/12/28 10:12:54;;;;;;;27.20;9.80;;;19.70;90.60;;;;;;5003644;28;20026;-54
2020/12/28 10:15:20;;;;;;;31.63;10.43;;;19.60;90.70;;;;;;5033260;28;20033;-54
2020/12/28 10:18:09;;;;;;;25.95;8.52;;;19.60;90.40;;;;;;5034770;28;20052;-55
2020/12/28 10:20:34;;;;;;;27.13;9.77;;;19.60;90.30;;;;;;5017724;28;20022;-55
2020/12/28 10:23:00;;;;;;;21.20;8.73;;;19.70;90.50;;;;;;5034732;28;20506;-54
2020/12/28 10:25:26;;;;;;;26.10;9.45;;;19.70;90.50;;;;;;5021143;28;20053;-55
2020/12/28 10:27:51;;;;;;;23.85;8.73;;;19.60;90.60;;;;;;5024553;28;20026;-54
2020/12/28 10:30:17;;;;;;;21.92;8.32;;;19.70;90.60;;;;;;5029301;28;20103;-54
2020/12/28 10:32:42;;;;;;;21.20;7.88;;;19.70;90.50;;;;;;5018319;28;20121;-54
2020/12/28 10:35:08;;;;;;;24.65;8.77;;;19.70;90.60;;;;;;5024883;28;20033;-54
2020/12/28 10:37:33;;;;;;;18.25;8.25;;;19.60;90.60;;;;;;5025894;28;20021;-54
2020/12/28 10:39:59;;;;;;;24.55;8.45;;;19.70;90.60;;;;;;5007245;28;20025;-55
2020/12/28 10:42:24;;;;;;;19.83;8.23;;;19.70;90.60;;;;;;5021565;28;20026;-56
2020/12/28 10:44:50;;;;;;;17.88;8.15;;;19.70;90.50;;;;;;5023939;28;20033;-54
2020/12/28 10:47:16;;;;;;;20.75;8.40;;;19.70;90.50;;;;;;5023689;28;20041;-54
2020/12/28 10:49:41;;;;;;;21.83;8.13;;;19.70;90.60;;;;;;5025275;28;20021;-54
2020/12/28 10:52:07;;;;;;;20.90;8.55;;;19.70;90.50;;;;;;5031098;28;20466;-54
2020/12/28 10:54:32;;;;;;;21.35;8.07;;;19.70;90.40;;;;;;5029366;28;20061;-54
2020/12/28 10:56:58;;;;;;;18.88;8.52;;;19.70;90.40;;;;;;5023977;28;20462;-54
2020/12/28 10:59:23;;;;;;;20.67;8.13;;;19.70;90.50;;;;;;5026897;28;20104;-54
2020/12/28 11:01:49;;;;;;;19.08;7.35;;;19.70;90.60;;;;;;5030235;28;20139;-54
2020/12/28 11:04:15;;;;;;;15.68;7.78;;;19.70;90.50;;;;;;5024388;28;20037;-54
2020/12/28 11:06:41;;;;;;;19.23;7.50;;;19.70;90.30;;;;;;5027122;28;20517;-54
2020/12/28 11:09:07;;;;;;;21.90;7.68;;;19.60;90.00;;;;;;5025326;28;20026;-54
2020/12/28 11:11:32;;;;;;;20.20;6.90;;;19.60;90.30;;;;;;4999048;28;20033;-54
2020/12/28 11:13:58;;;;;;;18.05;7.80;;;19.70;90.20;;;;;;5032626;28;20029;-55
2020/12/28 11:16:25;;;;;;;15.00;6.95;;;19.70;90.20;;;;;;5012451;28;20029;-54
2020/12/28 11:18:50;;;;;;;17.08;6.88;;;19.70;90.30;;;;;;5025802;28;20080;-54
2020/12/28 11:21:16;;;;;;;20.92;7.00;;;19.70;90.20;;;;;;5022060;28;20022;-54
2020/12/28 11:26:27;;;;;;;17.13;7.07;;;19.70;90.30;;;;;;5015904;28;20057;-54
2020/12/28 11:28:54;;;;;;;20.92;7.03;;;19.70;90.30;;;;;;5025029;28;20026;-54
2020/12/28 11:31:19;;;;;;;15.90;6.65;;;19.70;90.20;;;;;;5024148;28;20045;-54
2020/12/28 11:33:46;;;;;;;15.35;7.05;;;19.70;90.20;;;;;;5029808;28;20057;-54
2020/12/28 11:36:13;;;;;;;14.60;7.03;;;19.70;89.90;;;;;;5008028;28;20453;-54
2020/12/28 11:38:39;;;;;;;16.73;7.38;;;19.70;90.00;;;;;;5022020;28;20120;-54
2020/12/28 11:41:05;;;;;;;11.75;6.32;;;19.80;90.00;;;;;;5026194;28;20127;-55
2020/12/28 11:43:31;;;;;;;12.45;5.95;;;19.70;90.10;;;;;;5027779;28;20030;-54
2020/12/28 11:45:56;;;;;;;15.68;6.93;;;19.80;90.00;;;;;;5026772;28;20048;-54
2020/12/28 11:48:22;;;;;;;16.65;7.70;;;19.80;90.20;;;;;;5026881;28;20047;-54
2020/12/28 11:50:49;;;;;;;17.85;6.28;;;19.80;90.30;;;;;;5020292;28;20076;-54
2020/12/28 11:53:15;;;;;;;17.65;7.90;;;19.80;90.30;;;;;;5026413;28;20014;-54
2020/12/28 11:58:26;;;;;;;20.02;6.47;;;19.80;90.40;;;;;;5019617;28;20558;-54
2020/12/28 12:00:51;;;;;;;14.88;6.20;;;19.80;89.90;;;;;;5017212;28;20033;-55
2020/12/28 12:03:17;;;;;;;12.38;5.75;;;19.90;89.90;;;;;;5023620;28;20057;-54
2020/12/28 12:05:43;;;;;;;12.88;5.75;;;19.90;90.20;;;;;;5005790;28;20056;-55
2020/12/28 12:08:08;;;;;;;15.60;6.38;;;19.80;90.10;;;;;;5026669;28;20034;-54
2020/12/28 12:10:34;;;;;;;19.98;7.30;;;19.80;89.90;;;;;;5022692;28;20481;-56
2020/12/28 12:12:59;;;;;;;14.25;6.00;;;19.80;90.00;;;;;;5031556;28;20489;-53
2020/12/28 12:15:25;;;;;;;17.45;6.13;;;19.90;89.30;;;;;;5030790;28;20474;-54
2020/12/28 12:17:50;;;;;;;16.80;6.43;;;19.80;86.80;;;;;;5023151;28;20027;-54
2020/12/28 12:20:17;;;;;;;12.02;5.43;;;19.80;88.40;;;;;;5032766;28;20053;-54
2020/12/28 12:22:42;;;;;;;12.25;5.93;;;19.90;88.30;;;;;;5028706;28;20022;-54
2020/12/28 12:25:08;;;;;;;11.32;5.57;;;19.90;90.00;;;;;;5022566;28;20096;-55
2020/12/28 12:27:34;;;;;;;14.93;6.00;;;19.90;90.10;;;;;;5009568;28;20038;-54
2020/12/28 12:29:59;;;;;;;10.25;5.28;;;19.90;90.30;;;;;;5023143;28;20025;-53
2020/12/28 12:32:25;;;;;;;14.70;6.65;;;19.90;89.60;;;;;;5019574;28;20024;-54
2020/12/28 12:34:50;;;;;;;11.63;5.47;;;19.80;90.20;;;;;;5032462;28;20393;-54
2020/12/28 12:37:17;;;;;;;10.98;5.22;;;19.90;90.40;;;;;;5022127;28;20075;-54
2020/12/28 12:39:42;;;;;;;13.32;6.15;;;19.90;90.40;;;;;;5004811;28;20021;-54
2020/12/28 12:42:08;;;;;;;12.23;5.20;;;19.90;90.20;;;;;;5003216;28;20080;-55
2020/12/28 12:44:34;;;;;;;11.50;5.22;;;19.90;90.00;;;;;;5026042;28;20021;-54